LYVR weather

Vršac International Airport
South Banat, Serbia

Public forecast

Using degrees Celsius for public forecast. Weather courtesy of forecast.io.

METAR (pilot weather report)

Retrieved 2019/06/26 23:30 UTC (0 seconds ago):

LYVR 262330Z VRB02KT CAVOK 22/20 Q1021 NOSIG

TAF (pilot weather forecast)

Retrieved 2019/06/26 18:00 UTC (5 hours ago):

TAF LYVR 261700Z 2618/2718 34008KT CAVOK TX33/2713Z TN19/2703Z